sensor_id;sensor_type;location;lat;lon;timestamp;pressure;altitude;pressure_sealevel;temperature;humidity
3132;BME280;62090;52.330;9.104;2023-06-22T00:02:03;101355.16;;;22.69;79.39
3132;BME280;62090;52.330;9.104;2023-06-22T00:04:33;101354.34;;;22.67;79.25
3132;BME280;62090;52.330;9.104;2023-06-22T00:07:03;101358.72;;;22.63;79.19
3132;BME280;62090;52.330;9.104;2023-06-22T00:09:33;101356.34;;;22.50;80.52
3132;BME280;62090;52.330;9.104;2023-06-22T00:12:07;101357.28;;;22.43;81.48
3132;BME280;62090;52.330;9.104;2023-06-22T00:14:37;101359.06;;;22.41;81.63
3132;BME280;62090;52.330;9.104;2023-06-22T00:17:07;101358.25;;;22.37;81.99
3132;BME280;62090;52.330;9.104;2023-06-22T00:19:36;101352.22;;;22.35;81.27
3132;BME280;62090;52.330;9.104;2023-06-22T00:22:07;101351.38;;;22.33;81.29
3132;BME280;62090;52.330;9.104;2023-06-22T00:24:37;101339.25;;;22.35;80.98
3132;BME280;62090;52.330;9.104;2023-06-22T00:27:09;101343.66;;;22.28;81.56
3132;BME280;62090;52.330;9.104;2023-06-22T00:29:39;101335.16;;;22.16;81.76
3132;BME280;62090;52.330;9.104;2023-06-22T00:32:09;101327.56;;;22.04;82.37
3132;BME280;62090;52.330;9.104;2023-06-22T00:34:38;101322.47;;;21.93;82.99
3132;BME280;62090;52.330;9.104;2023-06-22T00:37:08;101319.09;;;21.86;83.44
3132;BME280;62090;52.330;9.104;2023-06-22T00:39:38;101323.47;;;21.83;83.57
3132;BME280;62090;52.330;9.104;2023-06-22T00:42:10;101308.88;;;21.74;83.33
3132;BME280;62090;52.330;9.104;2023-06-22T00:44:40;101325.22;;;21.79;83.34
3132;BME280;62090;52.330;9.104;2023-06-22T00:47:10;101259.22;;;21.33;83.45
3132;BME280;62090;52.330;9.104;2023-06-22T00:49:41;101308.91;;;21.71;82.60
3132;BME280;62090;52.330;9.104;2023-06-22T00:52:11;101319.41;;;21.62;83.79
3132;BME280;62090;52.330;9.104;2023-06-22T00:54:48;101306.47;;;21.58;84.75
3132;BME280;62090;52.330;9.104;2023-06-22T00:57:22;101188.84;;;20.90;84.85
3132;BME280;62090;52.330;9.104;2023-06-22T00:59:55;101273.06;;;21.33;85.64
3132;BME280;62090;52.330;9.104;2023-06-22T01:02:25;101297.00;;;21.55;85.49
3132;BME280;62090;52.330;9.104;2023-06-22T01:04:57;101267.88;;;21.35;86.23
3132;BME280;62090;52.330;9.104;2023-06-22T01:07:33;101264.41;;;21.33;85.63
3132;BME280;62090;52.330;9.104;2023-06-22T01:10:08;101293.50;;;21.58;85.82
3132;BME280;62090;52.330;9.104;2023-06-22T01:12:48;101202.47;;;21.07;85.70
3132;BME280;62090;52.330;9.104;2023-06-22T01:15:25;101283.09;;;21.62;85.44
3132;BME280;62090;52.330;9.104;2023-06-22T01:17:58;101274.47;;;21.60;85.02
3132;BME280;62090;52.330;9.104;2023-06-22T01:20:30;101257.38;;;21.42;85.07
3132;BME280;62090;52.330;9.104;2023-06-22T01:23:09;101279.66;;;21.60;84.26
3132;BME280;62090;52.330;9.104;2023-06-22T01:25:45;101287.38;;;21.66;84.95
3132;BME280;62090;52.330;9.104;2023-06-22T01:28:36;101288.97;;;21.73;84.13
3132;BME280;62090;52.330;9.104;2023-06-22T01:31:10;101290.81;;;21.67;83.89
3132;BME280;62090;52.330;9.104;2023-06-22T01:33:44;101287.63;;;21.46;83.94
3132;BME280;62090;52.330;9.104;2023-06-22T01:36:14;101245.56;;;21.19;83.88
3132;BME280;62090;52.330;9.104;2023-06-22T01:38:47;101291.19;;;21.35;84.33
3132;BME280;62090;52.330;9.104;2023-06-22T01:41:19;101288.59;;;21.35;84.55
3132;BME280;62090;52.330;9.104;2023-06-22T01:43:52;101291.16;;;21.36;84.87
3132;BME280;62090;52.330;9.104;2023-06-22T01:46:23;101225.16;;;20.88;85.57
3132;BME280;62090;52.330;9.104;2023-06-22T01:48:53;101283.59;;;21.17;86.03
3132;BME280;62090;52.330;9.104;2023-06-22T01:51:24;101233.91;;;20.75;84.84
3132;BME280;62090;52.330;9.104;2023-06-22T01:53:53;101290.72;;;20.93;84.59
3132;BME280;62090;52.330;9.104;2023-06-22T01:56:23;101282.34;;;20.67;86.21
3132;BME280;62090;52.330;9.104;2023-06-22T01:59:00;101247.91;;;20.56;87.42
3132;BME280;62090;52.330;9.104;2023-06-22T02:01:38;101304.56;;;20.89;87.19
3132;BME280;62090;52.330;9.104;2023-06-22T02:04:13;101299.28;;;21.01;87.53
3132;BME280;62090;52.330;9.104;2023-06-22T02:06:48;101299.41;;;20.86;87.65
3132;BME280;62090;52.330;9.104;2023-06-22T02:09:22;101303.66;;;20.95;87.22
3132;BME280;62090;52.330;9.104;2023-06-22T02:11:54;101295.19;;;20.76;86.77
3132;BME280;62090;52.330;9.104;2023-06-22T02:14:28;101309.78;;;20.83;88.20
3132;BME280;62090;52.330;9.104;2023-06-22T02:16:59;101277.16;;;20.67;87.98
3132;BME280;62090;52.330;9.104;2023-06-22T02:19:30;101306.28;;;20.90;87.50
3132;BME280;62090;52.330;9.104;2023-06-22T02:22:00;101302.88;;;20.84;88.14
3132;BME280;62090;52.330;9.104;2023-06-22T02:24:30;101298.63;;;20.78;88.20
3132;BME280;62090;52.330;9.104;2023-06-22T02:27:01;101284.03;;;20.68;88.66
3132;BME280;62090;52.330;9.104;2023-06-22T02:29:36;101283.22;;;20.63;88.06
3132;BME280;62090;52.330;9.104;2023-06-22T02:32:08;101238.56;;;20.34;87.48
3132;BME280;62090;52.330;9.104;2023-06-22T02:34:38;101307.31;;;20.73;88.27
3132;BME280;62090;52.330;9.104;2023-06-22T02:37:09;101309.84;;;20.79;88.64
3132;BME280;62090;52.330;9.104;2023-06-22T02:39:41;101289.19;;;20.71;88.12
3132;BME280;62090;52.330;9.104;2023-06-22T02:42:11;101313.25;;;20.85;87.69
3132;BME280;62090;52.330;9.104;2023-06-22T02:44:44;101310.66;;;20.85;88.07
3132;BME280;62090;52.330;9.104;2023-06-22T02:47:15;101304.75;;;20.68;88.30
3132;BME280;62090;52.330;9.104;2023-06-22T02:49:45;101273.78;;;20.56;87.51
3132;BME280;62090;52.330;9.104;2023-06-22T02:52:15;101279.78;;;20.61;87.49
3132;BME280;62090;52.330;9.104;2023-06-22T02:54:45;101322.78;;;20.80;87.88
3132;BME280;62090;52.330;9.104;2023-06-22T02:57:15;101316.69;;;20.84;87.02
3132;BME280;62090;52.330;9.104;2023-06-22T02:59:47;101325.38;;;20.82;86.85
3132;BME280;62090;52.330;9.104;2023-06-22T03:02:17;101306.47;;;20.69;86.96
3132;BME280;62090;52.330;9.104;2023-06-22T03:04:49;101331.41;;;20.82;86.04
3132;BME280;62090;52.330;9.104;2023-06-22T03:07:20;101295.38;;;20.55;86.36
3132;BME280;62090;52.330;9.104;2023-06-22T03:09:51;101246.34;;;20.29;85.69
3132;BME280;62090;52.330;9.104;2023-06-22T03:12:21;101325.47;;;20.73;85.82
3132;BME280;62090;52.330;9.104;2023-06-22T03:14:56;101271.25;;;20.48;85.25
3132;BME280;62090;52.330;9.104;2023-06-22T03:17:25;101303.06;;;20.64;85.43
3132;BME280;62090;52.330;9.104;2023-06-22T03:19:55;101311.69;;;20.63;86.21
3132;BME280;62090;52.330;9.104;2023-06-22T03:22:25;101316.13;;;20.50;87.18
3132;BME280;62090;52.330;9.104;2023-06-22T03:24:55;101254.22;;;20.11;88.85
3132;BME280;62090;52.330;9.104;2023-06-22T03:27:25;101315.31;;;20.42;88.81
3132;BME280;62090;52.330;9.104;2023-06-22T03:29:59;101307.50;;;20.48;87.92
3132;BME280;62090;52.330;9.104;2023-06-22T03:32:30;101314.41;;;20.48;87.59
3132;BME280;62090;52.330;9.104;2023-06-22T03:35:01;101313.53;;;20.50;87.72
3132;BME280;62090;52.330;9.104;2023-06-22T03:37:31;101240.53;;;19.98;88.28
3132;BME280;62090;52.330;9.104;2023-06-22T03:40:00;101323.03;;;20.47;88.52
3132;BME280;62090;52.330;9.104;2023-06-22T03:42:33;101323.94;;;20.46;88.15
3132;BME280;62090;52.330;9.104;2023-06-22T03:45:07;101255.13;;;20.05;87.72
3132;BME280;62090;52.330;9.104;2023-06-22T03:47:37;101305.03;;;20.29;88.26
3132;BME280;62090;52.330;9.104;2023-06-22T03:50:07;101287.81;;;20.21;88.15
3132;BME280;62090;52.330;9.104;2023-06-22T03:52:37;101317.94;;;20.38;88.79
3132;BME280;62090;52.330;9.104;2023-06-22T03:55:08;101298.13;;;20.34;88.57
3132;BME280;62090;52.330;9.104;2023-06-22T03:57:37;101322.16;;;20.46;88.47
3132;BME280;62090;52.330;9.104;2023-06-22T04:00:11;101321.28;;;20.55;87.77
3132;BME280;62090;52.330;9.104;2023-06-22T04:02:42;101308.44;;;20.40;89.23
3132;BME280;62090;52.330;9.104;2023-06-22T04:05:12;101329.00;;;20.58;89.34
3132;BME280;62090;52.330;9.104;2023-06-22T04:07:44;101318.56;;;20.70;88.02
3132;BME280;62090;52.330;9.104;2023-06-22T04:10:14;101331.41;;;20.82;88.14
3132;BME280;62090;52.330;9.104;2023-06-22T04:12:44;101337.41;;;20.87;87.58
3132;BME280;62090;52.330;9.104;2023-06-22T04:15:16;101339.91;;;20.98;86.38
3132;BME280;62090;52.330;9.104;2023-06-22T04:17:46;101328.69;;;20.97;86.35
3132;BME280;62090;52.330;9.104;2023-06-22T04:20:16;101331.28;;;20.94;86.23
3132;BME280;62090;52.330;9.104;2023-06-22T04:22:46;101328.75;;;20.91;86.67
3132;BME280;62090;52.330;9.104;2023-06-22T04:25:16;101329.59;;;20.90;87.53
3132;BME280;62090;52.330;9.104;2023-06-22T04:27:46;101339.97;;;20.93;87.56
3132;BME280;62090;52.330;9.104;2023-06-22T04:30:19;101325.19;;;21.01;87.10
3132;BME280;62090;52.330;9.104;2023-06-22T04:32:49;101324.31;;;21.02;88.18
3132;BME280;62090;52.330;9.104;2023-06-22T04:35:25;101321.69;;;21.07;87.67
3132;BME280;62090;52.330;9.104;2023-06-22T04:37:58;101325.13;;;21.07;88.02
3132;BME280;62090;52.330;9.104;2023-06-22T04:40:27;101325.13;;;21.07;87.81
3132;BME280;62090;52.330;9.104;2023-06-22T04:42:58;101320.78;;;21.14;86.99
3132;BME280;62090;52.330;9.104;2023-06-22T04:45:32;101270.94;;;20.83;87.12
3132;BME280;62090;52.330;9.104;2023-06-22T04:48:05;101319.03;;;21.16;86.54
3132;BME280;62090;52.330;9.104;2023-06-22T04:50:37;101318.16;;;21.16;86.23
3132;BME280;62090;52.330;9.104;2023-06-22T04:53:07;101292.44;;;20.94;86.91
3132;BME280;62090;52.330;9.104;2023-06-22T04:55:39;101282.88;;;21.01;88.13
3132;BME280;62090;52.330;9.104;2023-06-22T04:58:12;101321.47;;;21.31;87.94
3132;BME280;62090;52.330;9.104;2023-06-22T05:00:45;101262.03;;;21.12;86.97
3132;BME280;62090;52.330;9.104;2023-06-22T05:03:17;101310.06;;;21.47;86.65
3132;BME280;62090;52.330;9.104;2023-06-22T05:05:47;101302.19;;;21.55;86.05
3132;BME280;62090;52.330;9.104;2023-06-22T05:08:17;101296.88;;;21.66;86.39
3132;BME280;62090;52.330;9.104;2023-06-22T05:10:47;101274.41;;;21.63;85.54
3132;BME280;62090;52.330;9.104;2023-06-22T05:13:31;101288.16;;;21.71;85.40
3132;BME280;62090;52.330;9.104;2023-06-22T05:16:04;101290.63;;;21.79;84.85
3132;BME280;62090;52.330;9.104;2023-06-22T05:18:34;101231.34;;;21.52;84.58
3132;BME280;62090;52.330;9.104;2023-06-22T05:21:04;101245.22;;;21.49;84.63
3132;BME280;62090;52.330;9.104;2023-06-22T05:23:33;101298.53;;;21.71;85.02
3132;BME280;62090;52.330;9.104;2023-06-22T05:26:03;101227.31;;;21.29;85.07
3132;BME280;62090;52.330;9.104;2023-06-22T05:28:36;101192.16;;;21.02;85.63
3132;BME280;62090;52.330;9.104;2023-06-22T05:31:08;101307.13;;;21.78;85.66
3132;BME280;62090;52.330;9.104;2023-06-22T05:33:38;101303.59;;;21.83;85.42
3132;BME280;62090;52.330;9.104;2023-06-22T05:36:08;101295.63;;;21.97;85.23
3132;BME280;62090;52.330;9.104;2023-06-22T05:38:39;101273.06;;;22.04;84.43
3132;BME280;62090;52.330;9.104;2023-06-22T05:41:09;101302.88;;;22.35;84.33
3132;BME280;62090;52.330;9.104;2023-06-22T05:43:39;101301.78;;;22.50;83.10
3132;BME280;62090;52.330;9.104;2023-06-22T05:46:11;101304.03;;;22.72;82.72
3132;BME280;62090;52.330;9.104;2023-06-22T05:48:41;101301.38;;;22.76;82.05
3132;BME280;62090;52.330;9.104;2023-06-22T05:51:11;101292.47;;;22.90;81.39
3132;BME280;62090;52.330;9.104;2023-06-22T05:53:41;101294.97;;;22.95;81.59
3132;BME280;62090;52.330;9.104;2023-06-22T05:56:11;101294.84;;;23.02;81.45
3132;BME280;62090;52.330;9.104;2023-06-22T05:58:41;101271.38;;;23.05;80.66
3132;BME280;62090;52.330;9.104;2023-06-22T06:01:13;101277.09;;;23.24;79.94
3132;BME280;62090;52.330;9.104;2023-06-22T06:03:43;101193.66;;;22.93;79.43
3132;BME280;62090;52.330;9.104;2023-06-22T06:06:13;101289.31;;;23.65;78.68
3132;BME280;62090;52.330;9.104;2023-06-22T06:08:43;101250.19;;;23.70;78.09
3132;BME280;62090;52.330;9.104;2023-06-22T06:11:13;101256.22;;;23.72;76.89
3132;BME280;62090;52.330;9.104;2023-06-22T06:13:42;101285.75;;;24.09;76.82
3132;BME280;62090;52.330;9.104;2023-06-22T06:16:15;101243.00;;;23.81;76.08
3132;BME280;62090;52.330;9.104;2023-06-22T06:18:45;101276.31;;;24.05;76.02
3132;BME280;62090;52.330;9.104;2023-06-22T06:21:15;101279.59;;;24.13;74.82
3132;BME280;62090;52.330;9.104;2023-06-22T06:23:45;101282.59;;;24.35;74.46
3132;BME280;62090;52.330;9.104;2023-06-22T06:26:14;101268.94;;;24.95;71.98
3132;BME280;62090;52.330;9.104;2023-06-22T06:28:53;101275.81;;;24.63;73.19
3132;BME280;62090;52.330;9.104;2023-06-22T06:31:26;101278.59;;;24.56;73.91
3132;BME280;62090;52.330;9.104;2023-06-22T06:33:57;101281.13;;;24.59;74.39
3132;BME280;62090;52.330;9.104;2023-06-22T06:36:27;101245.16;;;24.37;75.15
3132;BME280;62090;52.330;9.104;2023-06-22T06:38:57;101268.38;;;24.82;74.10
3132;BME280;62090;52.330;9.104;2023-06-22T06:41:26;101267.25;;;24.92;73.17
3132;BME280;62090;52.330;9.104;2023-06-22T06:43:56;101265.88;;;25.11;72.84
3132;BME280;62090;52.330;9.104;2023-06-22T06:46:30;101273.00;;;25.37;71.93
3132;BME280;62090;52.330;9.104;2023-06-22T06:49:00;101215.63;;;25.05;71.06
3132;BME280;62090;52.330;9.104;2023-06-22T06:51:29;101276.22;;;25.45;71.43
3132;BME280;62090;52.330;9.104;2023-06-22T06:53:59;101235.69;;;25.03;72.16
3132;BME280;62090;52.330;9.104;2023-06-22T06:56:30;101230.16;;;24.81;72.83
3132;BME280;62090;52.330;9.104;2023-06-22T06:59:00;101241.53;;;24.78;72.73
3132;BME280;62090;52.330;9.104;2023-06-22T07:01:33;101273.88;;;25.05;73.31
3132;BME280;62090;52.330;9.104;2023-06-22T07:04:03;101272.88;;;25.09;73.37
3132;BME280;62090;52.330;9.104;2023-06-22T07:06:33;101272.75;;;25.14;73.52
3132;BME280;62090;52.330;9.104;2023-06-22T07:09:04;101276.00;;;25.53;73.07
3132;BME280;62090;52.330;9.104;2023-06-22T07:11:34;101270.03;;;25.80;71.55
3132;BME280;62090;52.330;9.104;2023-06-22T07:14:04;101200.00;;;25.34;71.68
3132;BME280;62090;52.330;9.104;2023-06-22T07:16:37;101237.50;;;25.90;71.21
3132;BME280;62090;52.330;9.104;2023-06-22T07:19:07;101269.00;;;26.12;70.45
3132;BME280;62090;52.330;9.104;2023-06-22T07:21:37;101257.50;;;26.18;70.86
3132;BME280;62090;52.330;9.104;2023-06-22T07:24:07;101259.69;;;26.33;69.85
3132;BME280;62090;52.330;9.104;2023-06-22T07:26:37;101270.72;;;26.41;70.15
3132;BME280;62090;52.330;9.104;2023-06-22T07:29:12;101270.34;;;26.53;69.74
3132;BME280;62090;52.330;9.104;2023-06-22T07:31:44;101256.19;;;26.59;68.60
3132;BME280;62090;52.330;9.104;2023-06-22T07:34:14;101237.53;;;26.17;69.13
3132;BME280;62090;52.330;9.104;2023-06-22T07:36:44;101267.16;;;26.16;71.14
3132;BME280;62090;52.330;9.104;2023-06-22T07:39:14;101261.97;;;26.14;71.25
3132;BME280;62090;52.330;9.104;2023-06-22T07:41:44;101245.72;;;26.06;71.18
3132;BME280;62090;52.330;9.104;2023-06-22T07:44:14;101258.34;;;26.18;70.96
3132;BME280;62090;52.330;9.104;2023-06-22T07:46:47;101254.88;;;26.18;70.59
3132;BME280;62090;52.330;9.104;2023-06-22T07:49:19;101232.50;;;26.11;70.94
3132;BME280;62090;52.330;9.104;2023-06-22T07:51:49;101234.81;;;26.20;70.12
3132;BME280;62090;52.330;9.104;2023-06-22T07:54:19;101260.50;;;26.33;69.76
3132;BME280;62090;52.330;9.104;2023-06-22T07:56:49;101267.72;;;26.27;69.95
3132;BME280;62090;52.330;9.104;2023-06-22T07:59:20;101253.13;;;26.18;70.33
3132;BME280;62090;52.330;9.104;2023-06-22T08:01:52;101256.00;;;26.11;71.00
3132;BME280;62090;52.330;9.104;2023-06-22T08:04:22;101250.00;;;26.07;71.99
3132;BME280;62090;52.330;9.104;2023-06-22T08:06:54;101252.50;;;26.12;71.73
3132;BME280;62090;52.330;9.104;2023-06-22T08:09:23;101191.78;;;25.76;71.82
3132;BME280;62090;52.330;9.104;2023-06-22T08:11:53;101252.13;;;26.24;71.03
3132;BME280;62090;52.330;9.104;2023-06-22T08:14:23;101256.47;;;26.23;71.39
3132;BME280;62090;52.330;9.104;2023-06-22T08:16:56;101253.09;;;26.20;71.07
3132;BME280;62090;52.330;9.104;2023-06-22T08:19:26;101258.28;;;26.21;71.22
3132;BME280;62090;52.330;9.104;2023-06-22T08:21:56;101275.41;;;26.31;71.50
3132;BME280;62090;52.330;9.104;2023-06-22T08:24:26;101260.97;;;26.46;70.86
3132;BME280;62090;52.330;9.104;2023-06-22T08:26:57;101213.91;;;26.20;70.18
3132;BME280;62090;52.330;9.104;2023-06-22T08:29:27;101241.72;;;26.48;70.51
3132;BME280;62090;52.330;9.104;2023-06-22T08:31:59;101243.34;;;26.53;70.60
3132;BME280;62090;52.330;9.104;2023-06-22T08:34:29;101238.09;;;26.53;69.93
3132;BME280;62090;52.330;9.104;2023-06-22T08:36:59;101128.75;;;25.88;70.20
3132;BME280;62090;52.330;9.104;2023-06-22T08:39:33;101246.31;;;26.67;69.60
3132;BME280;62090;52.330;9.104;2023-06-22T08:42:04;101242.47;;;26.77;69.92
3132;BME280;62090;52.330;9.104;2023-06-22T08:44:34;101221.16;;;26.64;69.53
3132;BME280;62090;52.330;9.104;2023-06-22T08:47:07;101247.41;;;26.86;69.60
3132;BME280;62090;52.330;9.104;2023-06-22T08:49:36;101202.38;;;26.76;69.18
3132;BME280;62090;52.330;9.104;2023-06-22T08:52:09;101238.97;;;27.03;69.34
3132;BME280;62090;52.330;9.104;2023-06-22T08:54:38;101231.25;;;27.00;68.83
3132;BME280;62090;52.330;9.104;2023-06-22T08:57:08;101226.09;;;26.97;69.06
3132;BME280;62090;52.330;9.104;2023-06-22T08:59:38;101114.28;;;26.30;68.66
3132;BME280;62090;52.330;9.104;2023-06-22T09:02:11;101223.75;;;26.91;68.55
3132;BME280;62090;52.330;9.104;2023-06-22T09:04:41;101225.31;;;26.70;69.25
3132;BME280;62090;52.330;9.104;2023-06-22T09:07:11;101163.06;;;26.30;68.97
3132;BME280;62090;52.330;9.104;2023-06-22T09:09:41;101095.50;;;25.93;67.99
3132;BME280;62090;52.330;9.104;2023-06-22T09:12:11;101190.72;;;26.37;68.68
3132;BME280;62090;52.330;9.104;2023-06-22T09:14:41;101208.50;;;26.52;68.68
3132;BME280;62090;52.330;9.104;2023-06-22T09:17:14;101208.81;;;26.68;67.72
3132;BME280;62090;52.330;9.104;2023-06-22T09:19:43;101156.41;;;26.20;67.40
3132;BME280;62090;52.330;9.104;2023-06-22T09:22:14;101206.69;;;26.54;67.45
3132;BME280;62090;52.330;9.104;2023-06-22T09:24:44;101211.31;;;26.46;67.65
3132;BME280;62090;52.330;9.104;2023-06-22T09:27:14;101126.47;;;26.03;66.90
3132;BME280;62090;52.330;9.104;2023-06-22T09:30:02;100952.88;;;25.11;66.81
3132;BME280;62090;52.330;9.104;2023-06-22T09:32:35;101206.00;;;26.99;64.67
3132;BME280;62090;52.330;9.104;2023-06-22T09:35:06;101149.63;;;26.90;65.64
3132;BME280;62090;52.330;9.104;2023-06-22T09:37:36;101206.50;;;27.55;64.20
3132;BME280;62090;52.330;9.104;2023-06-22T09:40:08;101162.28;;;27.47;64.16
3132;BME280;62090;52.330;9.104;2023-06-22T09:42:41;101104.03;;;27.19;62.97
3132;BME280;62090;52.330;9.104;2023-06-22T09:45:11;101091.09;;;27.16;63.62
3132;BME280;62090;52.330;9.104;2023-06-22T09:47:43;101186.34;;;27.80;63.58
3132;BME280;62090;52.330;9.104;2023-06-22T09:50:14;101150.75;;;27.53;63.79
3132;BME280;62090;52.330;9.104;2023-06-22T09:52:44;101174.66;;;27.44;64.96
3132;BME280;62090;52.330;9.104;2023-06-22T09:55:17;101169.13;;;27.51;65.08
3132;BME280;62090;52.330;9.104;2023-06-22T09:57:47;101165.72;;;27.49;65.88
3132;BME280;62090;52.330;9.104;2023-06-22T10:00:18;101129.56;;;27.36;66.04
3132;BME280;62090;52.330;9.104;2023-06-22T10:02:51;101124.22;;;27.39;66.38
3132;BME280;62090;52.330;9.104;2023-06-22T10:05:26;101171.03;;;27.69;66.11
3132;BME280;62090;52.330;9.104;2023-06-22T10:07:57;101122.22;;;27.45;66.27
3132;BME280;62090;52.330;9.104;2023-06-22T10:10:27;101149.41;;;27.86;65.77
3132;BME280;62090;52.330;9.104;2023-06-22T10:13:02;101153.03;;;28.26;64.75
3132;BME280;62090;52.330;9.104;2023-06-22T10:15:32;101163.59;;;28.44;64.70
3132;BME280;62090;52.330;9.104;2023-06-22T10:18:05;101083.56;;;27.94;63.95
3132;BME280;62090;52.330;9.104;2023-06-22T10:20:35;101167.88;;;28.45;64.18
3132;BME280;62090;52.330;9.104;2023-06-22T10:23:05;101173.69;;;28.53;64.19
3132;BME280;62090;52.330;9.104;2023-06-22T10:25:35;101169.75;;;28.43;62.74
3132;BME280;62090;52.330;9.104;2023-06-22T10:28:05;101171.16;;;28.30;63.45
3132;BME280;62090;52.330;9.104;2023-06-22T10:30:34;101167.63;;;28.31;64.66
3132;BME280;62090;52.330;9.104;2023-06-22T10:33:07;101162.19;;;28.56;65.30
3132;BME280;62090;52.330;9.104;2023-06-22T10:35:38;101149.53;;;28.45;63.04
3132;BME280;62090;52.330;9.104;2023-06-22T10:38:08;101161.06;;;28.62;63.43
3132;BME280;62090;52.330;9.104;2023-06-22T10:40:37;101131.72;;;28.53;62.38
3132;BME280;62090;52.330;9.104;2023-06-22T10:43:07;101161.47;;;28.52;62.51
3132;BME280;62090;52.330;9.104;2023-06-22T10:45:38;101154.78;;;28.45;63.40
3132;BME280;62090;52.330;9.104;2023-06-22T10:48:11;101111.06;;;28.26;62.91
3132;BME280;62090;52.330;9.104;2023-06-22T10:50:40;101140.03;;;28.43;62.48
3132;BME280;62090;52.330;9.104;2023-06-22T10:53:10;101112.06;;;28.23;63.45
3132;BME280;62090;52.330;9.104;2023-06-22T10:55:40;101111.06;;;28.26;63.93
3132;BME280;62090;52.330;9.104;2023-06-22T10:58:23;101145.22;;;28.65;63.06
3132;BME280;62090;52.330;9.104;2023-06-22T11:00:53;101101.56;;;28.43;62.84
3132;BME280;62090;52.330;9.104;2023-06-22T11:03:26;101142.59;;;28.65;62.51
3132;BME280;62090;52.330;9.104;2023-06-22T11:05:56;101129.31;;;28.68;62.60
3132;BME280;62090;52.330;9.104;2023-06-22T11:08:25;101139.69;;;28.91;62.47
3132;BME280;62090;52.330;9.104;2023-06-22T11:10:56;101130.19;;;28.68;63.32
3132;BME280;62090;52.330;9.104;2023-06-22T11:13:25;101135.69;;;28.62;63.05
3132;BME280;62090;52.330;9.104;2023-06-22T11:15:55;101130.38;;;28.64;63.84
3132;BME280;62090;52.330;9.104;2023-06-22T11:18:28;101130.66;;;28.58;62.98
3132;BME280;62090;52.330;9.104;2023-06-22T11:20:57;101067.75;;;28.37;63.49
3132;BME280;62090;52.330;9.104;2023-06-22T11:23:27;101127.91;;;28.81;61.13
3132;BME280;62090;52.330;9.104;2023-06-22T11:25:57;101128.75;;;28.81;61.33
3132;BME280;62090;52.330;9.104;2023-06-22T11:28:27;101121.84;;;28.79;61.08
3132;BME280;62090;52.330;9.104;2023-06-22T11:30:57;101114.03;;;28.77;61.95
3132;BME280;62090;52.330;9.104;2023-06-22T11:33:39;101079.00;;;28.60;62.79
3132;BME280;62090;52.330;9.104;2023-06-22T11:36:09;101105.06;;;28.83;62.65
3132;BME280;62090;52.330;9.104;2023-06-22T11:38:39;101092.94;;;28.99;62.83
3132;BME280;62090;52.330;9.104;2023-06-22T11:41:09;101070.50;;;28.73;65.03
3132;BME280;62090;52.330;9.104;2023-06-22T11:43:39;101087.97;;;28.74;62.86
3132;BME280;62090;52.330;9.104;2023-06-22T11:46:09;101051.22;;;28.35;63.14
3132;BME280;62090;52.330;9.104;2023-06-22T11:48:42;101075.16;;;28.67;63.98
3132;BME280;62090;52.330;9.104;2023-06-22T11:51:12;101059.41;;;28.67;61.96
3132;BME280;62090;52.330;9.104;2023-06-22T11:53:42;101066.59;;;28.82;62.30
3132;BME280;62090;52.330;9.104;2023-06-22T11:56:12;101062.94;;;28.86;62.42
3132;BME280;62090;52.330;9.104;2023-06-22T11:58:42;101054.06;;;28.88;62.22
3132;BME280;62090;52.330;9.104;2023-06-22T12:01:11;101049.81;;;28.86;62.65
3132;BME280;62090;52.330;9.104;2023-06-22T12:03:45;101054.84;;;28.90;61.26
3132;BME280;62090;52.330;9.104;2023-06-22T12:06:15;101051.81;;;28.81;61.00
3132;BME280;62090;52.330;9.104;2023-06-22T12:08:45;101052.59;;;28.63;60.89
3132;BME280;62090;52.330;9.104;2023-06-22T12:11:15;101012.81;;;28.34;61.25
3132;BME280;62090;52.330;9.104;2023-06-22T12:13:44;101046.41;;;28.84;61.89
3132;BME280;62090;52.330;9.104;2023-06-22T12:16:14;101044.25;;;29.11;61.38
3132;BME280;62090;52.330;9.104;2023-06-22T12:18:47;101042.44;;;29.30;61.24
3132;BME280;62090;52.330;9.104;2023-06-22T12:21:17;101038.63;;;29.37;60.81
3132;BME280;62090;52.330;9.104;2023-06-22T12:23:46;100965.56;;;28.92;59.86
3132;BME280;62090;52.330;9.104;2023-06-22T12:26:16;101029.91;;;29.36;59.88
3132;BME280;62090;52.330;9.104;2023-06-22T12:28:47;101001.56;;;29.24;59.62
3132;BME280;62090;52.330;9.104;2023-06-22T12:31:17;101007.81;;;29.41;58.85
3132;BME280;62090;52.330;9.104;2023-06-22T12:33:49;101019.09;;;29.43;58.46
3132;BME280;62090;52.330;9.104;2023-06-22T12:36:19;101010.59;;;29.37;59.76
3132;BME280;62090;52.330;9.104;2023-06-22T12:38:49;101007.53;;;29.64;59.63
3132;BME280;62090;52.330;9.104;2023-06-22T12:41:21;101006.00;;;29.60;59.86
3132;BME280;62090;52.330;9.104;2023-06-22T12:43:51;100994.47;;;29.62;59.66
3132;BME280;62090;52.330;9.104;2023-06-22T12:46:20;101003.81;;;29.68;59.93
3132;BME280;62090;52.330;9.104;2023-06-22T12:48:53;101003.66;;;29.71;59.44
3132;BME280;62090;52.330;9.104;2023-06-22T12:51:23;100997.81;;;29.66;59.56
3132;BME280;62090;52.330;9.104;2023-06-22T12:53:53;101002.28;;;29.64;60.16
3132;BME280;62090;52.330;9.104;2023-06-22T12:56:22;101006.69;;;29.63;59.97
3132;BME280;62090;52.330;9.104;2023-06-22T12:58:52;101013.56;;;29.66;59.85
3132;BME280;62090;52.330;9.104;2023-06-22T13:01:22;101012.31;;;29.73;59.34
3132;BME280;62090;52.330;9.104;2023-06-22T13:03:54;101018.81;;;29.66;59.99
3132;BME280;62090;52.330;9.104;2023-06-22T13:06:24;101022.38;;;29.65;60.85
3132;BME280;62090;52.330;9.104;2023-06-22T13:08:54;101003.28;;;29.44;61.23
3132;BME280;62090;52.330;9.104;2023-06-22T13:11:44;100985.53;;;29.30;61.29
3132;BME280;62090;52.330;9.104;2023-06-22T13:14:14;101021.50;;;29.47;61.67
3132;BME280;62090;52.330;9.104;2023-06-22T13:16:45;100969.91;;;29.10;61.14
3132;BME280;62090;52.330;9.104;2023-06-22T13:19:17;100971.50;;;28.95;61.94
3132;BME280;62090;52.330;9.104;2023-06-22T13:21:47;101031.13;;;29.11;62.99